sensor_id;sensor_type;location;lat;lon;timestamp;P1;durP1;ratioP1;P2;durP2;ratioP2
26335;SDS011;14047;50.936;4.654;2024-02-14T00:00:12;4.40;;;2.30;;
26335;SDS011;14047;50.936;4.654;2024-02-14T00:02:44;7.72;;;2.47;;
26335;SDS011;14047;50.936;4.654;2024-02-14T00:05:10;6.65;;;2.35;;
26335;SDS011;14047;50.936;4.654;2024-02-14T00:07:37;3.85;;;2.28;;
26335;SDS011;14047;50.936;4.654;2024-02-14T00:10:05;7.65;;;2.50;;
26335;SDS011;14047;50.936;4.654;2024-02-14T00:12:35;8.02;;;2.70;;
26335;SDS011;14047;50.936;4.654;2024-02-14T00:15:02;6.55;;;2.40;;
26335;SDS011;14047;50.936;4.654;2024-02-14T00:17:31;8.88;;;2.65;;
26335;SDS011;14047;50.936;4.654;2024-02-14T00:19:59;5.10;;;2.85;;
26335;SDS011;14047;50.936;4.654;2024-02-14T00:22:25;4.55;;;2.40;;
26335;SDS011;14047;50.936;4.654;2024-02-14T00:24:51;5.00;;;2.78;;
26335;SDS011;14047;50.936;4.654;2024-02-14T00:27:19;3.78;;;2.42;;
26335;SDS011;14047;50.936;4.654;2024-02-14T00:29:44;4.30;;;2.40;;
26335;SDS011;14047;50.936;4.654;2024-02-14T00:32:12;4.13;;;2.47;;
26335;SDS011;14047;50.936;4.654;2024-02-14T00:34:44;7.32;;;2.42;;
26335;SDS011;14047;50.936;4.654;2024-02-14T00:37:11;6.10;;;2.67;;
26335;SDS011;14047;50.936;4.654;2024-02-14T00:39:37;4.57;;;2.65;;
26335;SDS011;14047;50.936;4.654;2024-02-14T00:42:03;4.30;;;2.50;;
26335;SDS011;14047;50.936;4.654;2024-02-14T00:44:29;5.25;;;2.20;;
26335;SDS011;14047;50.936;4.654;2024-02-14T00:46:58;5.65;;;2.65;;
26335;SDS011;14047;50.936;4.654;2024-02-14T00:49:28;3.47;;;2.25;;
26335;SDS011;14047;50.936;4.654;2024-02-14T00:51:59;4.57;;;2.60;;
26335;SDS011;14047;50.936;4.654;2024-02-14T00:54:25;6.95;;;2.40;;
26335;SDS011;14047;50.936;4.654;2024-02-14T00:56:51;4.22;;;3.00;;
26335;SDS011;14047;50.936;4.654;2024-02-14T00:59:17;5.18;;;2.25;;
26335;SDS011;14047;50.936;4.654;2024-02-14T01:01:43;4.68;;;2.67;;
26335;SDS011;14047;50.936;4.654;2024-02-14T01:04:10;5.93;;;2.45;;
26335;SDS011;14047;50.936;4.654;2024-02-14T01:06:36;5.00;;;2.75;;
26335;SDS011;14047;50.936;4.654;2024-02-14T01:09:02;5.05;;;2.40;;
26335;SDS011;14047;50.936;4.654;2024-02-14T01:11:28;3.80;;;2.25;;
26335;SDS011;14047;50.936;4.654;2024-02-14T01:13:55;8.60;;;2.72;;
26335;SDS011;14047;50.936;4.654;2024-02-14T01:16:21;7.35;;;3.10;;
26335;SDS011;14047;50.936;4.654;2024-02-14T01:18:47;3.70;;;2.30;;
26335;SDS011;14047;50.936;4.654;2024-02-14T01:21:13;4.60;;;2.38;;
26335;SDS011;14047;50.936;4.654;2024-02-14T01:23:39;8.15;;;2.88;;
26335;SDS011;14047;50.936;4.654;2024-02-14T01:26:05;4.10;;;2.42;;
26335;SDS011;14047;50.936;4.654;2024-02-14T01:28:31;6.13;;;2.75;;
26335;SDS011;14047;50.936;4.654;2024-02-14T01:30:57;5.65;;;2.30;;
26335;SDS011;14047;50.936;4.654;2024-02-14T01:33:23;4.55;;;2.28;;
26335;SDS011;14047;50.936;4.654;2024-02-14T01:35:49;5.35;;;2.40;;
26335;SDS011;14047;50.936;4.654;2024-02-14T01:38:15;4.70;;;2.20;;
26335;SDS011;14047;50.936;4.654;2024-02-14T01:40:44;5.40;;;2.35;;
26335;SDS011;14047;50.936;4.654;2024-02-14T01:43:11;6.65;;;2.40;;
26335;SDS011;14047;50.936;4.654;2024-02-14T01:45:39;6.03;;;2.75;;
26335;SDS011;14047;50.936;4.654;2024-02-14T01:48:12;5.53;;;3.33;;
26335;SDS011;14047;50.936;4.654;2024-02-14T01:50:43;5.13;;;2.50;;
26335;SDS011;14047;50.936;4.654;2024-02-14T01:53:11;6.05;;;2.42;;
26335;SDS011;14047;50.936;4.654;2024-02-14T01:55:37;6.30;;;2.70;;
26335;SDS011;14047;50.936;4.654;2024-02-14T01:58:03;5.75;;;2.78;;
26335;SDS011;14047;50.936;4.654;2024-02-14T02:00:30;4.25;;;2.75;;
26335;SDS011;14047;50.936;4.654;2024-02-14T02:02:59;6.60;;;2.47;;
26335;SDS011;14047;50.936;4.654;2024-02-14T02:05:25;8.57;;;2.88;;
26335;SDS011;14047;50.936;4.654;2024-02-14T02:07:51;4.80;;;2.75;;
26335;SDS011;14047;50.936;4.654;2024-02-14T02:10:17;8.20;;;3.10;;
26335;SDS011;14047;50.936;4.654;2024-02-14T02:13:03;6.13;;;3.03;;
26335;SDS011;14047;50.936;4.654;2024-02-14T02:15:49;5.88;;;3.38;;
26335;SDS011;14047;50.936;4.654;2024-02-14T02:18:35;6.05;;;3.08;;
26335;SDS011;14047;50.936;4.654;2024-02-14T02:21:22;8.50;;;3.30;;
26335;SDS011;14047;50.936;4.654;2024-02-14T02:23:51;6.35;;;3.75;;
26335;SDS011;14047;50.936;4.654;2024-02-14T02:26:17;6.40;;;3.63;;
26335;SDS011;14047;50.936;4.654;2024-02-14T02:29:03;6.20;;;3.30;;
26335;SDS011;14047;50.936;4.654;2024-02-14T02:31:30;6.30;;;2.97;;
26335;SDS011;14047;50.936;4.654;2024-02-14T02:33:57;5.72;;;3.22;;
26335;SDS011;14047;50.936;4.654;2024-02-14T02:36:23;5.00;;;3.20;;
26335;SDS011;14047;50.936;4.654;2024-02-14T02:39:09;5.13;;;2.90;;
26335;SDS011;14047;50.936;4.654;2024-02-14T02:41:56;5.93;;;3.30;;
26335;SDS011;14047;50.936;4.654;2024-02-14T02:44:54;8.13;;;3.08;;
26335;SDS011;14047;50.936;4.654;2024-02-14T02:47:46;8.05;;;3.30;;
26335;SDS011;14047;50.936;4.654;2024-02-14T02:50:33;10.40;;;3.22;;
26335;SDS011;14047;50.936;4.654;2024-02-14T02:53:19;7.40;;;3.00;;
26335;SDS011;14047;50.936;4.654;2024-02-14T02:56:05;4.78;;;2.80;;
26335;SDS011;14047;50.936;4.654;2024-02-14T02:58:32;6.72;;;3.90;;
26335;SDS011;14047;50.936;4.654;2024-02-14T03:00:59;5.38;;;3.10;;
26335;SDS011;14047;50.936;4.654;2024-02-14T03:03:45;6.38;;;3.28;;
26335;SDS011;14047;50.936;4.654;2024-02-14T03:06:25;7.30;;;3.78;;
26335;SDS011;14047;50.936;4.654;2024-02-14T03:09:05;11.15;;;3.58;;
26335;SDS011;14047;50.936;4.654;2024-02-14T03:11:52;6.32;;;3.35;;
26335;SDS011;14047;50.936;4.654;2024-02-14T03:14:39;6.40;;;3.78;;
26335;SDS011;14047;50.936;4.654;2024-02-14T03:17:26;8.77;;;3.78;;
26335;SDS011;14047;50.936;4.654;2024-02-14T03:19:54;6.40;;;3.55;;
26335;SDS011;14047;50.936;4.654;2024-02-14T03:22:21;6.00;;;3.50;;
26335;SDS011;14047;50.936;4.654;2024-02-14T03:24:47;9.63;;;3.95;;
26335;SDS011;14047;50.936;4.654;2024-02-14T03:27:13;9.02;;;4.35;;
26335;SDS011;14047;50.936;4.654;2024-02-14T03:29:39;7.78;;;4.03;;
26335;SDS011;14047;50.936;4.654;2024-02-14T03:32:06;8.48;;;4.32;;
26335;SDS011;14047;50.936;4.654;2024-02-14T03:34:33;8.57;;;4.03;;
26335;SDS011;14047;50.936;4.654;2024-02-14T03:37:01;7.53;;;4.55;;
26335;SDS011;14047;50.936;4.654;2024-02-14T03:39:32;11.55;;;4.47;;
26335;SDS011;14047;50.936;4.654;2024-02-14T03:41:58;7.47;;;4.72;;
26335;SDS011;14047;50.936;4.654;2024-02-14T03:44:28;11.23;;;4.40;;
26335;SDS011;14047;50.936;4.654;2024-02-14T03:46:53;10.38;;;4.80;;
26335;SDS011;14047;50.936;4.654;2024-02-14T03:49:19;7.68;;;4.65;;
26335;SDS011;14047;50.936;4.654;2024-02-14T03:51:46;10.70;;;4.00;;
26335;SDS011;14047;50.936;4.654;2024-02-14T03:54:12;6.45;;;4.20;;
26335;SDS011;14047;50.936;4.654;2024-02-14T03:56:38;6.82;;;4.50;;
26335;SDS011;14047;50.936;4.654;2024-02-14T03:59:04;9.55;;;4.47;;
26335;SDS011;14047;50.936;4.654;2024-02-14T04:01:31;10.18;;;4.82;;
26335;SDS011;14047;50.936;4.654;2024-02-14T04:03:58;6.82;;;4.72;;
26335;SDS011;14047;50.936;4.654;2024-02-14T04:06:23;9.65;;;5.15;;
26335;SDS011;14047;50.936;4.654;2024-02-14T04:08:52;8.65;;;5.10;;
26335;SDS011;14047;50.936;4.654;2024-02-14T04:11:17;8.48;;;4.75;;
26335;SDS011;14047;50.936;4.654;2024-02-14T04:13:43;9.10;;;4.80;;
26335;SDS011;14047;50.936;4.654;2024-02-14T04:16:09;7.60;;;4.95;;
26335;SDS011;14047;50.936;4.654;2024-02-14T04:18:46;6.20;;;4.57;;
26335;SDS011;14047;50.936;4.654;2024-02-14T04:21:12;8.65;;;4.47;;
26335;SDS011;14047;50.936;4.654;2024-02-14T04:23:39;6.40;;;4.10;;
26335;SDS011;14047;50.936;4.654;2024-02-14T04:26:05;10.80;;;4.07;;
26335;SDS011;14047;50.936;4.654;2024-02-14T04:28:31;12.00;;;4.75;;
26335;SDS011;14047;50.936;4.654;2024-02-14T04:30:57;8.77;;;4.85;;
26335;SDS011;14047;50.936;4.654;2024-02-14T04:33:26;8.57;;;5.05;;
26335;SDS011;14047;50.936;4.654;2024-02-14T04:35:52;9.02;;;4.47;;
26335;SDS011;14047;50.936;4.654;2024-02-14T04:38:18;9.82;;;4.25;;
26335;SDS011;14047;50.936;4.654;2024-02-14T04:40:45;9.45;;;5.55;;
26335;SDS011;14047;50.936;4.654;2024-02-14T04:43:11;8.77;;;5.43;;
26335;SDS011;14047;50.936;4.654;2024-02-14T04:45:37;8.52;;;5.03;;
26335;SDS011;14047;50.936;4.654;2024-02-14T04:48:06;11.52;;;5.00;;
26335;SDS011;14047;50.936;4.654;2024-02-14T04:50:33;10.07;;;4.30;;
26335;SDS011;14047;50.936;4.654;2024-02-14T04:52:59;8.57;;;5.20;;
26335;SDS011;14047;50.936;4.654;2024-02-14T04:55:25;9.60;;;5.50;;
26335;SDS011;14047;50.936;4.654;2024-02-14T04:57:51;9.18;;;5.10;;
26335;SDS011;14047;50.936;4.654;2024-02-14T05:00:17;10.52;;;4.78;;
26335;SDS011;14047;50.936;4.654;2024-02-14T05:02:44;8.73;;;4.95;;
26335;SDS011;14047;50.936;4.654;2024-02-14T05:05:10;9.68;;;4.53;;
26335;SDS011;14047;50.936;4.654;2024-02-14T05:07:42;13.90;;;5.60;;
26335;SDS011;14047;50.936;4.654;2024-02-14T05:10:08;8.75;;;4.55;;
26335;SDS011;14047;50.936;4.654;2024-02-14T05:12:34;12.63;;;5.63;;
26335;SDS011;14047;50.936;4.654;2024-02-14T05:15:00;12.75;;;4.57;;
26335;SDS011;14047;50.936;4.654;2024-02-14T05:17:26;8.48;;;4.60;;
26335;SDS011;14047;50.936;4.654;2024-02-14T05:19:52;10.98;;;4.80;;
26335;SDS011;14047;50.936;4.654;2024-02-14T05:22:18;9.30;;;5.60;;
26335;SDS011;14047;50.936;4.654;2024-02-14T05:24:44;10.50;;;4.93;;
26335;SDS011;14047;50.936;4.654;2024-02-14T05:27:11;10.23;;;5.25;;
26335;SDS011;14047;50.936;4.654;2024-02-14T05:29:37;6.57;;;5.00;;
26335;SDS011;14047;50.936;4.654;2024-02-14T05:32:04;11.73;;;5.35;;
26335;SDS011;14047;50.936;4.654;2024-02-14T05:34:30;11.07;;;5.13;;
26335;SDS011;14047;50.936;4.654;2024-02-14T05:36:56;9.35;;;5.68;;
26335;SDS011;14047;50.936;4.654;2024-02-14T05:39:22;8.75;;;5.65;;
26335;SDS011;14047;50.936;4.654;2024-02-14T05:41:48;9.02;;;5.50;;
26335;SDS011;14047;50.936;4.654;2024-02-14T05:44:20;10.27;;;5.78;;
26335;SDS011;14047;50.936;4.654;2024-02-14T05:46:47;11.90;;;5.45;;
26335;SDS011;14047;50.936;4.654;2024-02-14T05:49:13;15.48;;;5.88;;
26335;SDS011;14047;50.936;4.654;2024-02-14T05:51:39;11.35;;;5.15;;
26335;SDS011;14047;50.936;4.654;2024-02-14T05:54:06;11.27;;;5.97;;
26335;SDS011;14047;50.936;4.654;2024-02-14T05:56:32;10.45;;;6.28;;
26335;SDS011;14047;50.936;4.654;2024-02-14T05:58:58;9.50;;;6.07;;
26335;SDS011;14047;50.936;4.654;2024-02-14T06:01:24;11.30;;;5.70;;
26335;SDS011;14047;50.936;4.654;2024-02-14T06:03:50;12.18;;;6.30;;
26335;SDS011;14047;50.936;4.654;2024-02-14T06:06:15;14.63;;;6.20;;
26335;SDS011;14047;50.936;4.654;2024-02-14T06:08:41;13.10;;;6.47;;
26335;SDS011;14047;50.936;4.654;2024-02-14T06:11:07;11.07;;;5.72;;
26335;SDS011;14047;50.936;4.654;2024-02-14T06:13:33;12.05;;;6.40;;
26335;SDS011;14047;50.936;4.654;2024-02-14T06:16:01;12.10;;;6.03;;
26335;SDS011;14047;50.936;4.654;2024-02-14T06:18:39;10.35;;;5.57;;
26335;SDS011;14047;50.936;4.654;2024-02-14T06:21:06;13.60;;;5.95;;
26335;SDS011;14047;50.936;4.654;2024-02-14T06:23:32;19.50;;;5.50;;
26335;SDS011;14047;50.936;4.654;2024-02-14T06:25:59;11.23;;;4.97;;
26335;SDS011;14047;50.936;4.654;2024-02-14T06:28:25;10.77;;;6.10;;
26335;SDS011;14047;50.936;4.654;2024-02-14T06:30:51;9.70;;;5.82;;
26335;SDS011;14047;50.936;4.654;2024-02-14T06:33:17;9.63;;;5.68;;
26335;SDS011;14047;50.936;4.654;2024-02-14T06:35:43;10.90;;;5.65;;
26335;SDS011;14047;50.936;4.654;2024-02-14T06:38:09;9.90;;;5.15;;
26335;SDS011;14047;50.936;4.654;2024-02-14T06:40:35;12.07;;;5.82;;
26335;SDS011;14047;50.936;4.654;2024-02-14T06:43:01;10.35;;;5.80;;
26335;SDS011;14047;50.936;4.654;2024-02-14T06:45:27;11.30;;;5.68;;
26335;SDS011;14047;50.936;4.654;2024-02-14T06:48:03;9.07;;;5.25;;
26335;SDS011;14047;50.936;4.654;2024-02-14T06:50:29;12.38;;;5.45;;
26335;SDS011;14047;50.936;4.654;2024-02-14T06:52:56;8.38;;;4.75;;
26335;SDS011;14047;50.936;4.654;2024-02-14T06:55:26;11.77;;;5.38;;
26335;SDS011;14047;50.936;4.654;2024-02-14T06:57:52;12.48;;;5.13;;
26335;SDS011;14047;50.936;4.654;2024-02-14T07:00:19;7.95;;;5.75;;
26335;SDS011;14047;50.936;4.654;2024-02-14T07:02:45;13.82;;;5.53;;
26335;SDS011;14047;50.936;4.654;2024-02-14T07:05:13;15.90;;;5.60;;
26335;SDS011;14047;50.936;4.654;2024-02-14T07:07:43;11.07;;;5.53;;
26335;SDS011;14047;50.936;4.654;2024-02-14T07:10:09;13.25;;;5.75;;
26335;SDS011;14047;50.936;4.654;2024-02-14T07:12:35;9.90;;;5.47;;
26335;SDS011;14047;50.936;4.654;2024-02-14T07:15:04;11.93;;;5.38;;
26335;SDS011;14047;50.936;4.654;2024-02-14T07:17:32;10.75;;;5.88;;
26335;SDS011;14047;50.936;4.654;2024-02-14T07:19:58;11.73;;;5.20;;
26335;SDS011;14047;50.936;4.654;2024-02-14T07:22:24;13.13;;;5.28;;
26335;SDS011;14047;50.936;4.654;2024-02-14T07:24:50;12.82;;;6.07;;
26335;SDS011;14047;50.936;4.654;2024-02-14T07:27:15;11.20;;;5.75;;
26335;SDS011;14047;50.936;4.654;2024-02-14T07:29:41;13.80;;;5.65;;
26335;SDS011;14047;50.936;4.654;2024-02-14T07:32:08;10.65;;;5.72;;
26335;SDS011;14047;50.936;4.654;2024-02-14T07:34:34;12.23;;;5.18;;
26335;SDS011;14047;50.936;4.654;2024-02-14T07:37:04;9.40;;;4.57;;
26335;SDS011;14047;50.936;4.654;2024-02-14T07:39:30;7.32;;;5.03;;
26335;SDS011;14047;50.936;4.654;2024-02-14T07:41:56;9.15;;;4.40;;
26335;SDS011;14047;50.936;4.654;2024-02-14T07:44:22;11.38;;;5.18;;
26335;SDS011;14047;50.936;4.654;2024-02-14T07:46:49;9.57;;;5.38;;
26335;SDS011;14047;50.936;4.654;2024-02-14T07:49:14;12.77;;;5.50;;
26335;SDS011;14047;50.936;4.654;2024-02-14T07:51:40;11.93;;;4.93;;
26335;SDS011;14047;50.936;4.654;2024-02-14T07:54:09;13.10;;;5.53;;
26335;SDS011;14047;50.936;4.654;2024-02-14T07:56:35;11.90;;;4.65;;
26335;SDS011;14047;50.936;4.654;2024-02-14T07:59:01;10.13;;;4.82;;
26335;SDS011;14047;50.936;4.654;2024-02-14T08:01:27;13.15;;;5.30;;
26335;SDS011;14047;50.936;4.654;2024-02-14T08:03:54;11.23;;;4.53;;
26335;SDS011;14047;50.936;4.654;2024-02-14T08:06:19;10.63;;;5.38;;
26335;SDS011;14047;50.936;4.654;2024-02-14T08:08:45;10.35;;;5.20;;
26335;SDS011;14047;50.936;4.654;2024-02-14T08:11:11;7.85;;;4.93;;
26335;SDS011;14047;50.936;4.654;2024-02-14T08:13:37;11.50;;;4.68;;
26335;SDS011;14047;50.936;4.654;2024-02-14T08:16:05;12.52;;;5.25;;
26335;SDS011;14047;50.936;4.654;2024-02-14T08:18:32;11.73;;;4.70;;
26335;SDS011;14047;50.936;4.654;2024-02-14T08:20:58;13.43;;;4.50;;
26335;SDS011;14047;50.936;4.654;2024-02-14T08:23:24;10.40;;;4.88;;
26335;SDS011;14047;50.936;4.654;2024-02-14T08:25:50;9.43;;;5.20;;
26335;SDS011;14047;50.936;4.654;2024-02-14T08:28:16;8.20;;;4.90;;
26335;SDS011;14047;50.936;4.654;2024-02-14T08:30:46;11.48;;;5.20;;
26335;SDS011;14047;50.936;4.654;2024-02-14T08:33:13;9.50;;;5.13;;
26335;SDS011;14047;50.936;4.654;2024-02-14T08:35:39;14.20;;;5.55;;
26335;SDS011;14047;50.936;4.654;2024-02-14T08:38:05;12.07;;;5.78;;
26335;SDS011;14047;50.936;4.654;2024-02-14T08:40:32;13.23;;;5.57;;
26335;SDS011;14047;50.936;4.654;2024-02-14T08:42:57;11.75;;;5.55;;
26335;SDS011;14047;50.936;4.654;2024-02-14T08:45:24;9.13;;;4.97;;
26335;SDS011;14047;50.936;4.654;2024-02-14T08:47:50;14.38;;;5.50;;
26335;SDS011;14047;50.936;4.654;2024-02-14T08:50:16;10.60;;;4.88;;
26335;SDS011;14047;50.936;4.654;2024-02-14T08:52:42;9.40;;;5.22;;
26335;SDS011;14047;50.936;4.654;2024-02-14T08:55:08;9.27;;;5.13;;
26335;SDS011;14047;50.936;4.654;2024-02-14T08:57:40;10.75;;;5.20;;
26335;SDS011;14047;50.936;4.654;2024-02-14T09:00:06;9.82;;;5.40;;
26335;SDS011;14047;50.936;4.654;2024-02-14T09:02:33;9.73;;;5.57;;
26335;SDS011;14047;50.936;4.654;2024-02-14T09:05:00;10.32;;;5.50;;
26335;SDS011;14047;50.936;4.654;2024-02-14T09:07:29;10.38;;;5.60;;
26335;SDS011;14047;50.936;4.654;2024-02-14T09:09:56;9.30;;;5.78;;
26335;SDS011;14047;50.936;4.654;2024-02-14T09:12:23;10.10;;;5.68;;
26335;SDS011;14047;50.936;4.654;2024-02-14T09:14:49;11.73;;;5.47;;
26335;SDS011;14047;50.936;4.654;2024-02-14T09:17:15;10.43;;;5.82;;
26335;SDS011;14047;50.936;4.654;2024-02-14T09:19:41;8.75;;;6.13;;
26335;SDS011;14047;50.936;4.654;2024-02-14T09:22:07;10.43;;;6.13;;
26335;SDS011;14047;50.936;4.654;2024-02-14T09:24:33;11.80;;;6.18;;
26335;SDS011;14047;50.936;4.654;2024-02-14T09:26:59;15.85;;;6.30;;
26335;SDS011;14047;50.936;4.654;2024-02-14T09:29:28;9.30;;;6.15;;
26335;SDS011;14047;50.936;4.654;2024-02-14T09:31:54;9.65;;;6.05;;
26335;SDS011;14047;50.936;4.654;2024-02-14T09:34:21;12.13;;;6.00;;
26335;SDS011;14047;50.936;4.654;2024-02-14T09:36:49;12.27;;;6.38;;
26335;SDS011;14047;50.936;4.654;2024-02-14T09:39:17;11.60;;;6.07;;
26335;SDS011;14047;50.936;4.654;2024-02-14T09:41:48;11.90;;;6.60;;
26335;SDS011;14047;50.936;4.654;2024-02-14T09:44:21;14.60;;;6.82;;
26335;SDS011;14047;50.936;4.654;2024-02-14T09:46:49;13.23;;;6.72;;
26335;SDS011;14047;50.936;4.654;2024-02-14T09:49:16;9.65;;;5.80;;
26335;SDS011;14047;50.936;4.654;2024-02-14T09:51:44;11.80;;;7.00;;
26335;SDS011;14047;50.936;4.654;2024-02-14T09:54:11;13.20;;;6.43;;
26335;SDS011;14047;50.936;4.654;2024-02-14T09:56:48;13.15;;;6.43;;
26335;SDS011;14047;50.936;4.654;2024-02-14T09:59:21;10.90;;;5.57;;
26335;SDS011;14047;50.936;4.654;2024-02-14T10:01:48;10.95;;;5.80;;
26335;SDS011;14047;50.936;4.654;2024-02-14T10:04:16;10.85;;;5.47;;
26335;SDS011;14047;50.936;4.654;2024-02-14T10:06:44;12.50;;;6.15;;
26335;SDS011;14047;50.936;4.654;2024-02-14T10:09:11;12.52;;;5.47;;
26335;SDS011;14047;50.936;4.654;2024-02-14T10:11:37;8.18;;;5.28;;
26335;SDS011;14047;50.936;4.654;2024-02-14T10:14:06;9.43;;;5.38;;
26335;SDS011;14047;50.936;4.654;2024-02-14T10:16:35;11.75;;;5.57;;
26335;SDS011;14047;50.936;4.654;2024-02-14T10:19:01;7.70;;;4.43;;
26335;SDS011;14047;50.936;4.654;2024-02-14T10:21:29;6.85;;;4.10;;
26335;SDS011;14047;50.936;4.654;2024-02-14T10:24:01;7.55;;;4.00;;
26335;SDS011;14047;50.936;4.654;2024-02-14T10:26:28;6.35;;;4.07;;
26335;SDS011;14047;50.936;4.654;2024-02-14T10:28:56;8.13;;;3.72;;
26335;SDS011;14047;50.936;4.654;2024-02-14T10:31:25;7.57;;;4.03;;
26335;SDS011;14047;50.936;4.654;2024-02-14T10:33:52;12.15;;;4.30;;
26335;SDS011;14047;50.936;4.654;2024-02-14T10:36:20;7.82;;;3.10;;
26335;SDS011;14047;50.936;4.654;2024-02-14T10:38:47;3.53;;;2.70;;
26335;SDS011;14047;50.936;4.654;2024-02-14T10:41:15;6.32;;;2.78;;
26335;SDS011;14047;50.936;4.654;2024-02-14T10:43:44;4.20;;;3.10;;
26335;SDS011;14047;50.936;4.654;2024-02-14T10:46:20;8.30;;;2.53;;
26335;SDS011;14047;50.936;4.654;2024-02-14T10:48:50;3.75;;;2.58;;
26335;SDS011;14047;50.936;4.654;2024-02-14T10:51:19;5.30;;;2.67;;
26335;SDS011;14047;50.936;4.654;2024-02-14T10:53:48;3.65;;;2.33;;
26335;SDS011;14047;50.936;4.654;2024-02-14T10:56:17;3.65;;;2.15;;
26335;SDS011;14047;50.936;4.654;2024-02-14T10:58:47;3.80;;;2.30;;
26335;SDS011;14047;50.936;4.654;2024-02-14T11:01:14;3.35;;;2.10;;
26335;SDS011;14047;50.936;4.654;2024-02-14T11:03:44;3.00;;;1.83;;
26335;SDS011;14047;50.936;4.654;2024-02-14T11:06:14;2.28;;;1.77;;
26335;SDS011;14047;50.936;4.654;2024-02-14T11:08:54;6.28;;;1.92;;
26335;SDS011;14047;50.936;4.654;2024-02-14T11:11:21;3.20;;;1.75;;
26335;SDS011;14047;50.936;4.654;2024-02-14T11:13:51;4.25;;;1.90;;
26335;SDS011;14047;50.936;4.654;2024-02-14T11:16:18;3.83;;;1.73;;
26335;SDS011;14047;50.936;4.654;2024-02-14T11:19:14;2.55;;;1.80;;
26335;SDS011;14047;50.936;4.654;2024-02-14T11:21:41;3.03;;;1.95;;
26335;SDS011;14047;50.936;4.654;2024-02-14T11:24:12;2.25;;;1.63;;
26335;SDS011;14047;50.936;4.654;2024-02-14T11:26:46;3.90;;;1.40;;
26335;SDS011;14047;50.936;4.654;2024-02-14T11:29:21;2.30;;;1.40;;
26335;SDS011;14047;50.936;4.654;2024-02-14T11:31:57;1.95;;;1.25;;
26335;SDS011;14047;50.936;4.654;2024-02-14T11:34:25;2.05;;;1.35;;
26335;SDS011;14047;50.936;4.654;2024-02-14T11:36:51;2.33;;;1.50;;
26335;SDS011;14047;50.936;4.654;2024-02-14T11:39:17;1.52;;;1.10;;
26335;SDS011;14047;50.936;4.654;2024-02-14T11:41:43;1.73;;;1.45;;
26335;SDS011;14047;50.936;4.654;2024-02-14T11:44:09;2.80;;;1.42;;
26335;SDS011;14047;50.936;4.654;2024-02-14T11:46:39;2.65;;;1.05;;
26335;SDS011;14047;50.936;4.654;2024-02-14T11:49:05;3.97;;;1.67;;
26335;SDS011;14047;50.936;4.654;2024-02-14T11:51:32;2.80;;;1.48;;
26335;SDS011;14047;50.936;4.654;2024-02-14T11:54:00;2.92;;;1.58;;
26335;SDS011;14047;50.936;4.654;2024-02-14T11:56:30;4.32;;;1.88;;
26335;SDS011;14047;50.936;4.654;2024-02-14T11:59:07;2.70;;;1.50;;
26335;SDS011;14047;50.936;4.654;2024-02-14T12:01:37;3.60;;;1.40;;
26335;SDS011;14047;50.936;4.654;2024-02-14T12:04:05;3.63;;;1.65;;
26335;SDS011;14047;50.936;4.654;2024-02-14T12:06:34;5.85;;;1.58;;
26335;SDS011;14047;50.936;4.654;2024-02-14T12:09:16;3.72;;;1.50;;
26335;SDS011;14047;50.936;4.654;2024-02-14T12:11:50;2.15;;;1.40;;
26335;SDS011;14047;50.936;4.654;2024-02-14T12:14:16;3.13;;;1.73;;
26335;SDS011;14047;50.936;4.654;2024-02-14T12:16:43;5.72;;;1.45;;
26335;SDS011;14047;50.936;4.654;2024-02-14T12:19:14;5.55;;;2.33;;
26335;SDS011;14047;50.936;4.654;2024-02-14T12:21:44;5.50;;;1.70;;
26335;SDS011;14047;50.936;4.654;2024-02-14T12:24:11;3.65;;;1.60;;
26335;SDS011;14047;50.936;4.654;2024-02-14T12:26:40;6.82;;;1.80;;
26335;SDS011;14047;50.936;4.654;2024-02-14T12:29:07;3.88;;;2.03;;
26335;SDS011;14047;50.936;4.654;2024-02-14T12:31:36;3.45;;;1.83;;
26335;SDS011;14047;50.936;4.654;2024-02-14T12:34:02;3.65;;;2.00;;
26335;SDS011;14047;50.936;4.654;2024-02-14T12:36:30;4.50;;;1.80;;
26335;SDS011;14047;50.936;4.654;2024-02-14T12:39:00;3.78;;;2.13;;
26335;SDS011;14047;50.936;4.654;2024-02-14T12:41:30;3.17;;;1.80;;
26335;SDS011;14047;50.936;4.654;2024-02-14T12:43:56;3.90;;;1.92;;
26335;SDS011;14047;50.936;4.654;2024-02-14T12:46:23;2.60;;;1.92;;
26335;SDS011;14047;50.936;4.654;2024-02-14T12:48:49;5.95;;;2.33;;
26335;SDS011;14047;50.936;4.654;2024-02-14T12:51:16;3.28;;;2.10;;
26335;SDS011;14047;50.936;4.654;2024-02-14T12:53:42;5.88;;;2.80;;
26335;SDS011;14047;50.936;4.654;2024-02-14T12:56:07;4.13;;;2.38;;
26335;SDS011;14047;50.936;4.654;2024-02-14T12:58:33;6.47;;;2.28;;
26335;SDS011;14047;50.936;4.654;2024-02-14T13:01:00;4.43;;;2.45;;
26335;SDS011;14047;50.936;4.654;2024-02-14T13:03:26;6.03;;;2.40;;
26335;SDS011;14047;50.936;4.654;2024-02-14T13:05:55;8.95;;;3.28;;
26335;SDS011;14047;50.936;4.654;2024-02-14T13:08:21;6.13;;;2.75;;
26335;SDS011;14047;50.936;4.654;2024-02-14T13:10:49;4.50;;;2.45;;
26335;SDS011;14047;50.936;4.654;2024-02-14T13:13:15;7.88;;;2.85;;
26335;SDS011;14047;50.936;4.654;2024-02-14T13:15:41;5.43;;;2.63;;
26335;SDS011;14047;50.936;4.654;2024-02-14T13:18:09;6.18;;;2.70;;
26335;SDS011;14047;50.936;4.654;2024-02-14T13:20:35;9.40;;;3.28;;
26335;SDS011;14047;50.936;4.654;2024-02-14T13:23:02;5.20;;;3.40;;
26335;SDS011;14047;50.936;4.654;2024-02-14T13:25:28;4.57;;;3.00;;
26335;SDS011;14047;50.936;4.654;2024-02-14T13:27:54;6.63;;;3.20;;
26335;SDS011;14047;50.936;4.654;2024-02-14T13:30:21;5.85;;;3.08;;
26335;SDS011;14047;50.936;4.654;2024-02-14T13:32:47;10.68;;;3.65;;
26335;SDS011;14047;50.936;4.654;2024-02-14T13:35:14;6.43;;;3.13;;
26335;SDS011;14047;50.936;4.654;2024-02-14T13:37:40;9.02;;;2.65;;
26335;SDS011;14047;50.936;4.654;2024-02-14T13:40:06;3.88;;;2.47;;
26335;SDS011;14047;50.936;4.654;2024-02-14T13:42:36;5.07;;;2.55;;
26335;SDS011;14047;50.936;4.654;2024-02-14T13:45:05;4.55;;;2.13;;
26335;SDS011;14047;50.936;4.654;2024-02-14T13:47:38;3.17;;;1.90;;
26335;SDS011;14047;50.936;4.654;2024-02-14T13:50:05;4.80;;;2.00;;
26335;SDS011;14047;50.936;4.654;2024-02-14T13:52:32;4.90;;;2.00;;
26335;SDS011;14047;50.936;4.654;2024-02-14T13:54:59;9.48;;;1.92;;
26335;SDS011;14047;50.936;4.654;2024-02-14T13:57:27;4.78;;;1.65;;
26335;SDS011;14047;50.936;4.654;2024-02-14T13:59:55;4.22;;;2.20;;
26335;SDS011;14047;50.936;4.654;2024-02-14T14:02:21;4.28;;;1.85;;
26335;SDS011;14047;50.936;4.654;2024-02-14T14:04:48;4.03;;;1.70;;
26335;SDS011;14047;50.936;4.654;2024-02-14T14:07:14;3.47;;;1.88;;
26335;SDS011;14047;50.936;4.654;2024-02-14T14:09:40;4.50;;;1.65;;
26335;SDS011;14047;50.936;4.654;2024-02-14T14:12:06;2.50;;;1.42;;
26335;SDS011;14047;50.936;4.654;2024-02-14T14:14:32;3.47;;;1.45;;
26335;SDS011;14047;50.936;4.654;2024-02-14T14:16:58;2.22;;;1.38;;
26335;SDS011;14047;50.936;4.654;2024-02-14T14:19:24;5.65;;;1.85;;
26335;SDS011;14047;50.936;4.654;2024-02-14T14:21:50;3.97;;;1.35;;
26335;SDS011;14047;50.936;4.654;2024-02-14T14:24:16;2.25;;;1.05;;
26335;SDS011;14047;50.936;4.654;2024-02-14T14:26:42;2.70;;;1.40;;
26335;SDS011;14047;50.936;4.654;2024-02-14T14:29:08;2.15;;;0.95;;
26335;SDS011;14047;50.936;4.654;2024-02-14T14:31:34;11.00;;;1.70;;
26335;SDS011;14047;50.936;4.654;2024-02-14T14:34:01;2.92;;;1.20;;
26335;SDS011;14047;50.936;4.654;2024-02-14T14:36:27;3.00;;;1.17;;
26335;SDS011;14047;50.936;4.654;2024-02-14T14:38:53;1.65;;;0.90;;
26335;SDS011;14047;50.936;4.654;2024-02-14T14:41:21;6.72;;;1.35;;
26335;SDS011;14047;50.936;4.654;2024-02-14T14:43:47;1.55;;;1.10;;
26335;SDS011;14047;50.936;4.654;2024-02-14T14:46:15;4.25;;;1.30;;
26335;SDS011;14047;50.936;4.654;2024-02-14T14:48:41;2.45;;;1.25;;